Airfield :
LOGIN :

Register | Disclaimer

   EN    FR    IT 

 










Legend :    VFR   Marginal VFR   IFR   Intensive IFR   Very Intensive IFR
Visi :
Ceiling :
>= 8 km
>= 3000ft
5 to 8 km
1000 to 3000 ft
1500m to 5 km
500 to 1000 ft
800 to 1500m
200 to 500 ft
< 800m
< 200 ft
Symbols :   Thunderstorms  Fog  Heavy snow  Heavy precipitations  Wind > 20 kt
SIGMETs :     Misc.  Thunderstorms  Icing  Turbulence  Mountain Waves  Volcanic Ashes






- Airport Elevation : 242 ft
- IATA code : DUB


EIDW - Dublin

CURRENT METAR :
  • 121830Z 23006KT 200V260 9999 -RA SCT012 BKN020 BKN060 07/06 Q0974 NOSIG

EXPIRED METARs :
  • 121800Z 23006KT 200V290 9999 -RA SCT012 BKN020 BKN060 07/06 Q0974 NOSIG
  • 121730Z 24004KT 200V320 9999 -RA SCT012 BKN020 BKN060 07/06 Q0975 NOSIG
  • 121700Z 24007KT 200V290 9999 SCT012 BKN020 BKN060 08/06 Q0975 NOSIG
  • 121630Z 25010KT 220V280 9999 SCT012 BKN020 07/06 Q0976 NOSIG
  • 121600Z 26009KT 230V290 9999 SCT012 SCT020 07/06 Q0976 NOSIG

TAF TAF EIDW
Valid from the 12 at 18:00 until the 13 at 18:00 UTC


121700Z 1218/1318 24012KT 9999 SCT012 BKN030
TEMPO 1218/1220 24015G25KT
TEMPO 1218/1307 -SHRA SCT018CB
PROB40
TEMPO 1218/1223 4000 SHRA BKN008
BECMG 1220/1222 27018G30KT
BECMG 1222/1224 27020G35KT
TEMPO 1302/1312 27026G40KT
BECMG 1315/1317 26015G26KT



MET'MAP, your aeronautical weather chart ! - Copyright ORBIFLY December 2007 - Disclaimer

ORBIFLY MET'MAP TEAM :

Programming & Development : Alexandra Zaïnal
Concept & original design : Baudouin d'Aumeries
Assistance for programming : Marc-Olivier Méhu
Technical & hardware support : Manuel Goepfert

Contact : metmap@orbifly.com




SOURCES & CREDITS :

   NOAA